createdAt,value
2018-12-27T00:00:38.541Z,92.49
2018-12-27T00:03:27.596Z,92.11
2018-12-27T00:06:16.655Z,91.58
2018-12-27T00:09:26.503Z,93.14
2018-12-27T00:12:07.966Z,93.09
2018-12-27T00:14:57.039Z,91.70
2018-12-27T00:17:45.820Z,92.27
2018-12-27T00:20:35.205Z,92.71
2018-12-27T00:23:24.272Z,92.67
2018-12-27T00:26:13.368Z,93.35
2018-12-27T00:29:02.442Z,93.19
2018-12-27T00:31:51.757Z,92.99
2018-12-27T00:34:41.081Z,93.01
2018-12-27T00:37:30.331Z,93.27
2018-12-27T00:40:19.612Z,93.14
2018-12-27T00:43:08.962Z,91.67
2018-12-27T00:45:58.283Z,92.27
2018-12-27T00:48:47.681Z,92.73
2018-12-27T00:51:36.917Z,93.09
2018-12-27T00:54:26.227Z,92.83
2018-12-27T00:57:15.490Z,91.73
2018-12-27T01:00:04.812Z,91.75
2018-12-27T01:02:54.099Z,91.97
2018-12-27T01:05:43.401Z,92.44
2018-12-27T01:08:32.686Z,92.56
2018-12-27T01:11:22.243Z,92.72
2018-12-27T01:14:03.996Z,93.45
2018-12-27T01:16:53.320Z,93.62
2018-12-27T01:19:42.719Z,93.10
2018-12-27T01:22:32.122Z,93.52
2018-12-27T01:25:21.722Z,93.74
2018-12-27T01:28:11.030Z,94.60
2018-12-27T01:31:00.300Z,95.18
2018-12-27T01:33:49.894Z,94.83
2018-12-27T01:36:20.015Z,94.25
2018-12-27T01:39:09.327Z,94.79
2018-12-27T01:41:58.623Z,95.09
2018-12-27T01:44:47.929Z,95.04
2018-12-27T01:47:37.685Z,95.10
2018-12-27T01:50:07.764Z,95.83
2018-12-27T01:52:57.034Z,95.55
2018-12-27T01:55:46.336Z,95.59
2018-12-27T01:58:35.617Z,95.49
2018-12-27T02:04:20.240Z,95.25
2018-12-27T02:07:09.549Z,95.95
2018-12-27T02:09:58.821Z,95.70
2018-12-27T02:12:40.475Z,96.22
2018-12-27T02:15:29.747Z,96.17
2018-12-27T02:18:19.056Z,95.54
2018-12-27T02:21:08.371Z,95.39
2018-12-27T02:23:57.695Z,95.71
2018-12-27T02:26:46.952Z,95.80
2018-12-27T02:29:36.245Z,96.28
2018-12-27T02:32:25.521Z,96.26
2018-12-27T02:35:14.863Z,96.35
2018-12-27T02:38:04.151Z,96.16
2018-12-27T02:40:53.442Z,96.27
2018-12-27T02:43:42.739Z,96.52
2018-12-27T02:46:32.032Z,96.98
2018-12-27T02:49:21.336Z,97.26
2018-12-27T02:52:10.649Z,97.21
2018-12-27T02:54:59.925Z,97.44
2018-12-27T02:57:49.224Z,97.72
2018-12-27T03:00:38.504Z,97.73
2018-12-27T03:03:27.805Z,97.98
2018-12-27T03:06:17.092Z,96.86
2018-12-27T03:09:06.585Z,97.26
2018-12-27T03:11:55.879Z,97.17
2018-12-27T03:14:41.794Z,96.97
2018-12-27T03:17:31.082Z,97.13
2018-12-27T03:20:21.014Z,96.75
2018-12-27T03:23:17.411Z,97.13
2018-12-27T03:26:06.757Z,97.43
2018-12-27T03:28:56.049Z,97.73
2018-12-27T03:31:45.361Z,97.55
2018-12-27T03:34:34.977Z,97.29
2018-12-27T03:37:24.532Z,98.30
2018-12-27T03:40:13.842Z,98.70
2018-12-27T03:43:03.137Z,98.76
2018-12-27T03:45:52.414Z,99.15
2018-12-27T03:48:41.709Z,98.87
2018-12-27T03:51:30.996Z,98.25
2018-12-27T03:54:20.271Z,98.41
2018-12-27T03:57:09.576Z,98.75
2018-12-27T03:59:58.850Z,99.18
2018-12-27T04:02:48.156Z,99.31
2018-12-27T04:05:37.432Z,99.83
2018-12-27T04:08:26.830Z,100.00
2018-12-27T04:11:16.369Z,100.00
2018-12-27T04:13:59.074Z,100.00
2018-12-27T04:16:48.138Z,100.00
2018-12-27T04:19:37.197Z,100.00
2018-12-27T04:22:26.280Z,100.00
2018-12-27T04:25:15.349Z,100.00
2018-12-27T04:31:12.693Z,100.00
2018-12-27T04:37:30.159Z,100.00
2018-12-27T04:40:19.501Z,100.00
2018-12-27T04:43:08.573Z,100.00
2018-12-27T04:45:57.610Z,100.00
2018-12-27T04:48:46.692Z,100.00
2018-12-27T04:51:35.789Z,100.00
2018-12-27T04:54:24.963Z,100.00
2018-12-27T04:57:14.061Z,100.00
2018-12-27T05:00:03.132Z,100.00
2018-12-27T05:02:52.200Z,100.00
2018-12-27T05:05:41.260Z,100.00
2018-12-27T05:08:30.319Z,100.00
2018-12-27T05:11:19.384Z,100.00
2018-12-27T05:14:08.450Z,100.00
2018-12-27T05:16:57.540Z,100.00
2018-12-27T05:19:46.584Z,100.00
2018-12-27T05:22:35.921Z,100.00
2018-12-27T05:25:24.980Z,100.00
2018-12-27T05:28:14.045Z,100.00
2018-12-27T05:31:03.121Z,100.00
2018-12-27T05:33:52.331Z,100.00
2018-12-27T05:36:41.347Z,100.00
2018-12-27T05:39:30.407Z,100.00
2018-12-27T05:42:19.472Z,100.00
2018-12-27T05:45:08.579Z,100.00
2018-12-27T05:47:57.632Z,100.00
2018-12-27T05:50:46.742Z,100.00
2018-12-27T05:53:35.799Z,100.00
2018-12-27T05:56:24.853Z,100.00
2018-12-27T05:59:13.969Z,100.00
2018-12-27T06:02:02.990Z,100.00
2018-12-27T06:04:52.195Z,100.00
2018-12-27T06:07:41.272Z,100.00
2018-12-27T06:10:30.338Z,100.00
2018-12-27T06:13:19.397Z,100.00
2018-12-27T06:16:00.987Z,100.00
2018-12-27T06:18:50.071Z,100.00
2018-12-27T06:21:39.170Z,100.00
2018-12-27T06:24:28.232Z,100.00
2018-12-27T06:27:17.337Z,100.00
2018-12-27T06:30:06.891Z,100.00
2018-12-27T06:32:55.955Z,100.00
2018-12-27T06:35:45.016Z,100.00
2018-12-27T06:38:34.134Z,100.00
2018-12-27T06:41:23.193Z,100.00
2018-12-27T06:44:12.282Z,100.00
2018-12-27T06:47:01.342Z,100.00
2018-12-27T06:49:50.409Z,100.00
2018-12-27T06:52:39.485Z,100.00
2018-12-27T06:55:28.972Z,100.00
2018-12-27T06:58:18.050Z,100.00
2018-12-27T07:01:07.147Z,100.00
2018-12-27T07:03:56.187Z,100.00
2018-12-27T07:06:45.276Z,100.00
2018-12-27T07:09:34.330Z,100.00
2018-12-27T07:12:23.405Z,100.00
2018-12-27T07:15:12.475Z,100.00
2018-12-27T07:17:54.536Z,100.00
2018-12-27T07:20:43.591Z,100.00
2018-12-27T07:23:32.957Z,100.00
2018-12-27T07:26:22.052Z,100.00
2018-12-27T07:29:11.112Z,100.00
2018-12-27T07:32:00.166Z,100.00
2018-12-27T07:34:56.303Z,100.00
2018-12-27T07:37:40.108Z,100.00
2018-12-27T07:40:29.251Z,100.00
2018-12-27T07:43:18.309Z,100.00
2018-12-27T07:46:10.903Z,100.00
2018-12-27T07:48:58.167Z,100.00
2018-12-27T07:51:47.214Z,100.00
2018-12-27T07:54:17.252Z,100.00
2018-12-27T07:57:06.306Z,100.00
2018-12-27T07:59:55.407Z,100.00
2018-12-27T08:02:44.495Z,100.00
2018-12-27T08:05:33.552Z,100.00
2018-12-27T08:08:22.630Z,99.68
2018-12-27T08:11:11.730Z,100.00
2018-12-27T08:14:00.790Z,100.00
2018-12-27T08:16:42.630Z,98.34
2018-12-27T08:19:31.685Z,98.07
2018-12-27T08:22:20.741Z,97.07
2018-12-27T08:25:09.822Z,97.00
2018-12-27T08:27:58.869Z,95.34
2018-12-27T08:30:47.931Z,95.04
2018-12-27T08:33:37.068Z,93.16
2018-12-27T08:36:26.125Z,93.60
2018-12-27T08:39:15.178Z,93.17
2018-12-27T08:42:04.221Z,91.01
2018-12-27T08:44:53.397Z,91.32
2018-12-27T08:47:42.467Z,90.63
2018-12-27T08:50:31.563Z,89.52
2018-12-27T08:53:01.356Z,90.12
2018-12-27T08:55:50.505Z,88.22
2018-12-27T08:58:39.567Z,88.05
2018-12-27T09:01:28.878Z,87.82
2018-12-27T09:04:17.946Z,88.02
2018-12-27T09:07:27.762Z,87.85
2018-12-27T09:10:16.872Z,85.37
2018-12-27T09:13:26.538Z,86.40
2018-12-27T09:16:08.197Z,86.14
2018-12-27T09:18:57.277Z,86.04
2018-12-27T09:21:46.351Z,86.15
2018-12-27T09:24:35.496Z,86.57
2018-12-27T09:27:24.548Z,85.58
2018-12-27T09:30:13.589Z,87.31
2018-12-27T09:33:02.646Z,86.61
2018-12-27T09:35:51.753Z,86.37
2018-12-27T09:38:40.796Z,87.40
2018-12-27T09:41:29.856Z,86.03
2018-12-27T09:44:18.916Z,85.33
2018-12-27T09:47:07.997Z,84.35
2018-12-27T09:49:57.068Z,84.81
2018-12-27T09:52:46.141Z,84.07
2018-12-27T09:55:35.203Z,82.34
2018-12-27T09:58:24.376Z,80.26
2018-12-27T10:01:13.436Z,81.25
2018-12-27T10:04:02.513Z,81.32
2018-12-27T10:06:51.559Z,80.71
2018-12-27T10:09:40.657Z,79.66
2018-12-27T10:12:29.722Z,80.33
2018-12-27T10:15:18.809Z,80.54
2018-12-27T10:18:00.795Z,78.67
2018-12-27T10:20:49.870Z,78.79
2018-12-27T10:23:38.968Z,78.71
2018-12-27T10:26:28.016Z,80.43
2018-12-27T10:29:17.083Z,78.59
2018-12-27T10:32:06.263Z,76.42
2018-12-27T10:34:55.307Z,77.90
2018-12-27T10:37:44.701Z,77.76
2018-12-27T10:40:33.756Z,77.69
2018-12-27T10:43:22.828Z,78.46
2018-12-27T10:46:11.901Z,75.96
2018-12-27T10:49:00.957Z,75.07
2018-12-27T10:51:50.041Z,74.65
2018-12-27T10:54:39.198Z,74.42
2018-12-27T10:57:28.246Z,75.16
2018-12-27T11:03:12.869Z,74.00
2018-12-27T11:06:01.954Z,73.93
2018-12-27T11:08:51.011Z,74.14
2018-12-27T11:11:40.418Z,74.43
2018-12-27T11:14:29.599Z,75.69
2018-12-27T11:17:18.652Z,73.87
2018-12-27T11:20:00.211Z,73.75
2018-12-27T11:22:49.308Z,72.02
2018-12-27T11:25:19.091Z,72.68
2018-12-27T11:28:08.417Z,73.46
2018-12-27T11:30:58.137Z,73.45
2018-12-27T11:33:48.311Z,73.62
2018-12-27T11:36:18.117Z,74.15
2018-12-27T11:39:07.195Z,71.38
2018-12-27T11:41:56.326Z,72.07
2018-12-27T11:44:45.458Z,73.43
2018-12-27T11:47:34.563Z,73.64
2018-12-27T11:50:23.675Z,74.42
2018-12-27T11:53:13.036Z,72.79
2018-12-27T11:56:02.112Z,72.70
2018-12-27T11:58:51.218Z,72.33
2018-12-27T12:01:40.313Z,71.91
2018-12-27T12:04:29.375Z,71.16
2018-12-27T12:07:18.474Z,69.47
2018-12-27T12:13:36.601Z,68.82
2018-12-27T12:16:25.690Z,68.45
2018-12-27T12:19:08.226Z,69.14
2018-12-27T12:21:57.311Z,68.10
2018-12-27T12:24:46.380Z,68.21
2018-12-27T12:27:35.570Z,69.19
2018-12-27T12:30:25.017Z,69.32
2018-12-27T12:33:14.204Z,67.11
2018-12-27T12:36:10.370Z,68.86
2018-12-27T12:38:54.079Z,69.44
2018-12-27T12:41:43.163Z,68.83
2018-12-27T12:44:32.268Z,69.46
2018-12-27T12:47:21.327Z,70.74
2018-12-27T12:50:10.478Z,69.66
2018-12-27T12:52:59.552Z,69.29
2018-12-27T12:55:48.677Z,70.36
2018-12-27T12:58:37.751Z,69.15
2018-12-27T13:01:26.869Z,68.55
2018-12-27T13:04:15.954Z,70.17
2018-12-27T13:07:05.326Z,69.45
2018-12-27T13:09:54.397Z,68.18
2018-12-27T13:12:43.753Z,67.11
2018-12-27T13:15:32.837Z,66.74
2018-12-27T13:18:14.906Z,67.59
2018-12-27T13:21:03.957Z,68.58
2018-12-27T13:23:53.126Z,69.18
2018-12-27T13:26:42.260Z,69.40
2018-12-27T13:29:31.335Z,69.96
2018-12-27T13:32:22.586Z,70.02
2018-12-27T13:35:11.664Z,69.34
2018-12-27T13:38:00.749Z,69.80
2018-12-27T13:40:49.832Z,69.16
2018-12-27T13:43:38.885Z,69.63
2018-12-27T13:46:27.927Z,69.60
2018-12-27T13:49:17.041Z,69.98
2018-12-27T13:52:06.135Z,71.54
2018-12-27T13:54:55.195Z,69.80
2018-12-27T13:57:46.613Z,69.59
2018-12-27T14:00:16.400Z,70.60
2018-12-27T14:03:05.478Z,70.82
2018-12-27T14:05:54.516Z,70.78
2018-12-27T14:08:43.609Z,70.80
2018-12-27T14:11:32.770Z,71.32
2018-12-27T14:14:21.907Z,71.41
2018-12-27T14:17:11.003Z,72.18
2018-12-27T14:19:53.996Z,71.14
2018-12-27T14:22:43.040Z,72.67
2018-12-27T14:25:32.107Z,71.89
2018-12-27T14:28:21.198Z,72.13
2018-12-27T14:31:10.270Z,72.51
2018-12-27T14:33:59.409Z,72.22
2018-12-27T14:36:48.508Z,72.55
2018-12-27T14:39:37.582Z,73.51
2018-12-27T14:42:26.670Z,73.95
2018-12-27T14:45:15.785Z,73.65
2018-12-27T14:48:04.841Z,74.30
2018-12-27T14:50:53.939Z,74.66
2018-12-27T14:53:43.119Z,75.27
2018-12-27T14:56:32.181Z,75.30
2018-12-27T14:59:32.940Z,76.94
2018-12-27T15:02:12.092Z,76.26
2018-12-27T15:05:01.152Z,78.44
2018-12-27T15:07:50.298Z,77.98
2018-12-27T15:10:39.739Z,78.08
2018-12-27T15:13:28.821Z,78.02
2018-12-27T15:16:17.923Z,77.88
2018-12-27T15:18:59.784Z,78.33
2018-12-27T15:21:48.863Z,79.12
2018-12-27T15:24:37.923Z,79.54
2018-12-27T15:27:26.991Z,80.46
2018-12-27T15:30:16.044Z,80.92
2018-12-27T15:33:05.196Z,82.20
2018-12-27T15:35:54.281Z,82.99
2018-12-27T15:38:43.381Z,83.42
2018-12-27T15:41:32.469Z,84.92
2018-12-27T15:44:21.630Z,85.82
2018-12-27T15:47:10.758Z,86.21
2018-12-27T15:49:59.799Z,87.12
2018-12-27T15:52:48.880Z,87.50
2018-12-27T15:55:37.937Z,88.14
2018-12-27T15:58:27.000Z,89.55
2018-12-27T16:01:16.043Z,89.73
2018-12-27T16:04:05.202Z,90.41
2018-12-27T16:06:54.266Z,90.96
2018-12-27T16:09:43.575Z,91.92
2018-12-27T16:12:32.665Z,92.61
2018-12-27T16:15:21.713Z,92.92
2018-12-27T16:18:10.803Z,93.83
2018-12-27T16:20:51.027Z,95.62
2018-12-27T16:23:40.119Z,96.38
2018-12-27T16:26:29.164Z,97.31
2018-12-27T16:29:18.343Z,97.61
2018-12-27T16:32:07.371Z,98.25
2018-12-27T16:34:56.454Z,99.44
2018-12-27T16:37:45.531Z,100.00
2018-12-27T16:40:34.598Z,100.00
2018-12-27T16:43:23.791Z,100.00
2018-12-27T16:46:12.711Z,100.00
2018-12-27T16:49:01.464Z,100.00
2018-12-27T16:51:50.926Z,100.00
2018-12-27T16:54:40.000Z,100.00
2018-12-27T16:57:29.115Z,100.00
2018-12-27T17:00:18.297Z,100.00
2018-12-27T17:03:07.478Z,100.00
2018-12-27T17:05:56.558Z,100.00
2018-12-27T17:08:46.395Z,100.00
2018-12-27T17:11:36.657Z,100.00
2018-12-27T17:14:25.741Z,100.00
2018-12-27T17:17:15.267Z,100.00
2018-12-27T17:19:56.865Z,100.00
2018-12-27T17:22:46.114Z,100.00
2018-12-27T17:25:35.176Z,100.00
2018-12-27T17:28:24.252Z,100.00
2018-12-27T17:31:13.348Z,100.00
2018-12-27T17:34:02.515Z,100.00
2018-12-27T17:37:06.358Z,100.00
2018-12-27T17:39:42.508Z,100.00
2018-12-27T17:42:31.587Z,100.00
2018-12-27T17:45:20.646Z,100.00
2018-12-27T17:48:09.842Z,100.00
2018-12-27T17:50:58.892Z,100.00
2018-12-27T17:53:47.985Z,100.00
2018-12-27T17:56:37.043Z,98.98
2018-12-27T17:59:37.965Z,98.91
2018-12-27T18:02:16.903Z,100.00
2018-12-27T18:05:06.174Z,100.00
2018-12-27T18:07:55.239Z,100.00
2018-12-27T18:10:44.312Z,99.75
2018-12-27T18:13:33.378Z,99.74
2018-12-27T18:16:22.443Z,99.91
2018-12-27T18:19:11.490Z,100.00
2018-12-27T18:21:53.435Z,100.00
2018-12-27T18:24:42.513Z,100.00
2018-12-27T18:27:31.623Z,100.00
2018-12-27T18:30:20.680Z,100.00
2018-12-27T18:33:09.749Z,100.00
2018-12-27T18:35:58.842Z,100.00
2018-12-27T18:39:08.702Z,100.00
2018-12-27T18:41:57.895Z,100.00
2018-12-27T18:44:47.230Z,100.00
2018-12-27T18:47:36.327Z,100.00
2018-12-27T18:50:25.522Z,100.00
2018-12-27T18:53:14.578Z,100.00
2018-12-27T18:56:03.663Z,100.00
2018-12-27T18:58:52.734Z,100.00
2018-12-27T19:01:41.816Z,100.00
2018-12-27T19:04:30.969Z,100.00
2018-12-27T19:07:20.074Z,100.00
2018-12-27T19:16:21.364Z,100.00
2018-12-27T19:19:10.436Z,100.00
2018-12-27T19:21:52.882Z,100.00
2018-12-27T19:24:42.214Z,100.00
2018-12-27T19:27:31.339Z,100.00
2018-12-27T19:30:20.390Z,100.00
2018-12-27T19:33:09.480Z,98.50
2018-12-27T19:35:58.939Z,98.18
2018-12-27T19:38:48.066Z,98.90
2018-12-27T19:41:37.137Z,97.00
2018-12-27T19:44:26.236Z,94.52
2018-12-27T19:47:15.298Z,93.48
2018-12-27T19:53:19.685Z,92.11
2018-12-27T19:56:08.747Z,91.61
2018-12-27T19:58:57.803Z,91.51
2018-12-27T20:01:28.032Z,90.39
2018-12-27T20:04:17.134Z,88.79
2018-12-27T20:07:06.166Z,88.11
2018-12-27T20:09:55.234Z,88.19
2018-12-27T20:12:44.362Z,87.41
2018-12-27T20:15:33.124Z,85.84
2018-12-27T20:18:22.209Z,86.77
2018-12-27T20:21:04.096Z,87.56
2018-12-27T20:23:53.197Z,86.28
2018-12-27T20:26:42.266Z,85.87
2018-12-27T20:29:31.341Z,86.61
2018-12-27T20:32:20.441Z,85.57
2018-12-27T20:35:09.492Z,84.06
2018-12-27T20:37:58.584Z,84.41
2018-12-27T20:40:47.703Z,84.30
2018-12-27T20:43:36.768Z,85.93
2018-12-27T20:46:25.835Z,85.19
2018-12-27T20:49:14.983Z,85.68
2018-12-27T20:52:04.072Z,86.37
2018-12-27T20:54:53.205Z,86.96
2018-12-27T20:57:42.263Z,87.41
2018-12-27T21:00:31.348Z,87.40
2018-12-27T21:03:20.478Z,86.17
2018-12-27T21:06:09.574Z,87.04
2018-12-27T21:08:58.607Z,86.46
2018-12-27T21:11:48.009Z,86.15
2018-12-27T21:14:37.147Z,87.62
2018-12-27T21:17:26.294Z,87.26
2018-12-27T21:20:15.389Z,87.66
2018-12-27T21:22:58.002Z,87.63
2018-12-27T21:25:47.113Z,88.32
2018-12-27T21:28:36.251Z,88.33
2018-12-27T21:31:25.293Z,89.28
2018-12-27T21:34:14.503Z,88.95
2018-12-27T21:37:03.672Z,89.57
2018-12-27T21:39:52.764Z,90.10
2018-12-27T21:42:41.922Z,90.79
2018-12-27T21:45:11.722Z,90.11
2018-12-27T21:48:00.771Z,90.36
2018-12-27T21:50:49.822Z,90.82
2018-12-27T21:53:38.932Z,90.07
2018-12-27T21:56:28.002Z,91.09
2018-12-27T21:59:17.083Z,91.93
2018-12-27T22:02:06.411Z,91.56
2018-12-27T22:04:55.496Z,92.18
2018-12-27T22:07:44.556Z,92.92
2018-12-27T22:10:33.602Z,92.50
2018-12-27T22:13:22.684Z,92.00
2018-12-27T22:16:11.738Z,91.68
2018-12-27T22:19:00.868Z,92.14
2018-12-27T22:21:49.943Z,92.73
2018-12-27T22:24:31.827Z,91.91
2018-12-27T22:27:20.919Z,91.63
2018-12-27T22:30:09.989Z,91.17
2018-12-27T22:32:59.090Z,91.05
2018-12-27T22:35:48.259Z,92.26
2018-12-27T22:38:37.312Z,92.32
2018-12-27T22:41:26.416Z,93.02
2018-12-27T22:44:15.589Z,92.92
2018-12-27T22:47:04.694Z,93.57
2018-12-27T22:49:53.740Z,93.25
2018-12-27T22:52:43.002Z,94.34
2018-12-27T22:55:32.577Z,93.11
2018-12-27T22:58:21.904Z,92.34
2018-12-27T23:01:11.044Z,93.18
2018-12-27T23:03:40.909Z,93.13
2018-12-27T23:06:30.048Z,93.68
2018-12-27T23:09:19.186Z,94.15
2018-12-27T23:12:08.403Z,94.91
2018-12-27T23:14:57.556Z,94.29
2018-12-27T23:17:46.634Z,95.42
2018-12-27T23:20:35.744Z,95.52
2018-12-27T23:23:18.182Z,96.11
2018-12-27T23:26:07.562Z,97.01
2018-12-27T23:28:56.690Z,97.61
2018-12-27T23:31:45.968Z,99.36
2018-12-27T23:34:35.040Z,99.81
2018-12-27T23:37:24.211Z,99.61
2018-12-27T23:40:13.276Z,100.00
2018-12-27T23:43:02.452Z,100.00
2018-12-27T23:45:51.532Z,100.00
2018-12-27T23:48:40.642Z,100.00
2018-12-27T23:51:29.730Z,99.95
2018-12-27T23:54:18.978Z,99.91
2018-12-27T23:57:08.137Z,100.00
2018-12-27T23:59:57.236Z,100.00
